createdAt,value
2018-06-01T00:00:38.466Z,1007.90
2018-06-01T00:01:38.412Z,1007.94
2018-06-01T00:02:38.403Z,1007.91
2018-06-01T00:03:38.403Z,1007.95
2018-06-01T00:04:38.406Z,1008.01
2018-06-01T00:05:38.403Z,1008.07
2018-06-01T00:06:38.390Z,1008.07
2018-06-01T00:07:38.388Z,1008.10
2018-06-01T00:08:38.384Z,1008.07
2018-06-01T00:09:38.381Z,1008.09
2018-06-01T00:10:38.375Z,1008.10
2018-06-01T00:11:38.997Z,1008.08
2018-06-01T00:12:38.397Z,1008.07
2018-06-01T00:13:38.391Z,1008.06
2018-06-01T00:14:38.366Z,1008.02
2018-06-01T00:15:38.367Z,1008.09
2018-06-01T00:16:38.363Z,1008.02
2018-06-01T00:17:38.353Z,1008.03
2018-06-01T00:18:38.349Z,1008.03
2018-06-01T00:19:38.343Z,1008.05
2018-06-01T00:20:38.343Z,1008.03
2018-06-01T00:21:38.342Z,1008.06
2018-06-01T00:22:38.342Z,1008.06
2018-06-01T00:23:38.334Z,1008.09
2018-06-01T00:24:38.332Z,1008.09
2018-06-01T00:25:38.333Z,1008.09
2018-06-01T00:26:38.325Z,1008.13
2018-06-01T00:27:38.323Z,1008.12
2018-06-01T00:28:38.319Z,1008.14
2018-06-01T00:29:38.313Z,1008.10
2018-06-01T00:30:38.315Z,1008.14
2018-06-01T00:31:38.309Z,1008.16
2018-06-01T00:32:38.306Z,1008.14
2018-06-01T00:33:38.303Z,1008.17
2018-06-01T00:34:38.295Z,1008.10
2018-06-01T00:35:38.299Z,1008.09
2018-06-01T00:36:38.292Z,1008.05
2018-06-01T00:37:38.286Z,1008.08
2018-06-01T00:38:38.285Z,1008.06
2018-06-01T00:39:38.285Z,1008.07
2018-06-01T00:40:38.282Z,1008.06
2018-06-01T00:41:38.276Z,1008.02
2018-06-01T00:42:38.270Z,1008.03
2018-06-01T00:43:38.266Z,1008.02
2018-06-01T00:44:38.268Z,1008.00
2018-06-01T00:45:38.259Z,1008.00
2018-06-01T00:46:38.257Z,1008.01
2018-06-01T00:47:38.251Z,1007.99
2018-06-01T00:48:38.251Z,1008.04
2018-06-01T00:49:38.246Z,1008.04
2018-06-01T00:50:38.243Z,1008.05
2018-06-01T00:51:38.239Z,1008.02
2018-06-01T00:52:38.237Z,1008.01
2018-06-01T00:53:38.232Z,1008.00
2018-06-01T00:54:38.227Z,1007.96
2018-06-01T00:55:38.225Z,1007.97
2018-06-01T00:56:38.222Z,1007.99
2018-06-01T00:57:38.217Z,1007.96
2018-06-01T00:58:38.215Z,1008.00
2018-06-01T00:59:38.217Z,1008.00
2018-06-01T01:00:38.207Z,1007.98
2018-06-01T01:01:38.210Z,1007.98
2018-06-01T01:02:38.201Z,1007.97
2018-06-01T01:03:38.203Z,1007.99
2018-06-01T01:04:38.190Z,1007.97
2018-06-01T01:05:38.189Z,1007.98
2018-06-01T01:06:38.183Z,1008.00
2018-06-01T01:07:38.188Z,1008.02
2018-06-01T01:08:38.185Z,1008.02
2018-06-01T01:09:38.178Z,1008.06
2018-06-01T01:10:38.169Z,1008.04
2018-06-01T01:11:38.167Z,1008.07
2018-06-01T01:12:38.174Z,1008.09
2018-06-01T01:13:38.170Z,1008.05
2018-06-01T01:14:38.158Z,1008.03
2018-06-01T01:15:38.159Z,1008.05
2018-06-01T01:16:38.149Z,1008.03
2018-06-01T01:17:38.150Z,1008.01
2018-06-01T01:18:38.153Z,1008.00
2018-06-01T01:19:38.142Z,1007.98
2018-06-01T01:20:38.141Z,1008.03
2018-06-01T01:21:38.132Z,1008.00
2018-06-01T01:22:38.129Z,1008.02
2018-06-01T01:23:38.125Z,1008.03
2018-06-01T01:24:38.143Z,1008.05
2018-06-01T01:25:38.119Z,1008.04
2018-06-01T01:26:38.113Z,1008.09
2018-06-01T01:27:38.112Z,1008.09
2018-06-01T01:28:38.108Z,1008.07
2018-06-01T01:29:38.107Z,1008.05
2018-06-01T01:30:38.100Z,1008.04
2018-06-01T01:31:38.097Z,1008.05
2018-06-01T01:32:38.094Z,1008.09
2018-06-01T01:33:38.084Z,1008.06
2018-06-01T01:34:38.091Z,1008.09
2018-06-01T01:35:38.083Z,1008.08
2018-06-01T01:36:38.079Z,1008.11
2018-06-01T01:37:38.080Z,1008.17
2018-06-01T01:38:38.071Z,1008.15
2018-06-01T01:39:38.068Z,1008.16
2018-06-01T01:40:38.070Z,1008.09
2018-06-01T01:41:38.060Z,1008.10
2018-06-01T01:42:38.056Z,1008.04
2018-06-01T01:43:38.054Z,1008.00
2018-06-01T01:44:38.051Z,1007.97
2018-06-01T01:45:38.044Z,1007.94
2018-06-01T01:46:38.041Z,1007.90
2018-06-01T01:47:38.038Z,1007.95
2018-06-01T01:48:38.042Z,1007.95
2018-06-01T01:49:38.031Z,1007.98
2018-06-01T01:50:38.027Z,1008.01
2018-06-01T01:51:38.024Z,1008.06
2018-06-01T01:52:38.022Z,1008.09
2018-06-01T01:53:38.017Z,1008.10
2018-06-01T01:54:38.016Z,1008.10
2018-06-01T01:55:38.007Z,1008.10
2018-06-01T01:56:38.009Z,1008.14
2018-06-01T01:57:38.004Z,1008.15
2018-06-01T01:58:38.001Z,1008.16
2018-06-01T01:59:37.997Z,1008.15
2018-06-01T02:00:37.995Z,1008.15
2018-06-01T02:01:37.991Z,1008.15
2018-06-01T02:02:37.984Z,1008.16
2018-06-01T02:03:37.981Z,1008.17
2018-06-01T02:04:37.973Z,1008.19
2018-06-01T02:05:37.973Z,1008.17
2018-06-01T02:06:37.972Z,1008.21
2018-06-01T02:07:37.966Z,1008.26
2018-06-01T02:08:37.962Z,1008.28
2018-06-01T02:09:37.960Z,1008.30
2018-06-01T02:10:37.961Z,1008.28
2018-06-01T02:11:37.948Z,1008.30
2018-06-01T02:12:37.945Z,1008.25
2018-06-01T02:13:37.955Z,1008.25
2018-06-01T02:14:37.936Z,1008.24
2018-06-01T02:15:37.967Z,1008.26
2018-06-01T02:16:37.947Z,1008.22
2018-06-01T02:17:37.940Z,1008.26
2018-06-01T02:18:37.931Z,1008.25
2018-06-01T02:19:37.924Z,1008.22
2018-06-01T02:20:37.922Z,1008.24
2018-06-01T02:21:37.925Z,1008.28
2018-06-01T02:22:37.939Z,1008.27
2018-06-01T02:23:37.907Z,1008.28
2018-06-01T02:24:37.905Z,1008.30
2018-06-01T02:25:37.906Z,1008.28
2018-06-01T02:26:37.909Z,1008.30
2018-06-01T02:27:37.898Z,1008.30
2018-06-01T02:28:37.892Z,1008.32
2018-06-01T02:29:37.903Z,1008.30
2018-06-01T02:30:37.895Z,1008.30
2018-06-01T02:31:37.893Z,1008.30
2018-06-01T02:32:37.906Z,1008.31
2018-06-01T02:33:37.876Z,1008.34
2018-06-01T02:34:37.869Z,1008.31
2018-06-01T02:35:37.880Z,1008.29
2018-06-01T02:36:37.870Z,1008.31
2018-06-01T02:37:37.859Z,1008.27
2018-06-01T02:38:37.852Z,1008.26
2018-06-01T02:39:37.847Z,1008.24
2018-06-01T02:40:37.845Z,1008.24
2018-06-01T02:41:38.562Z,1008.21
2018-06-01T02:42:37.842Z,1008.17
2018-06-01T02:43:37.837Z,1008.15
2018-06-01T02:44:37.831Z,1008.11
2018-06-01T02:45:37.829Z,1008.14
2018-06-01T02:46:37.824Z,1008.17
2018-06-01T02:47:37.820Z,1008.17
2018-06-01T02:48:37.818Z,1008.13
2018-06-01T02:49:37.816Z,1008.12
2018-06-01T02:50:37.811Z,1008.09
2018-06-01T02:51:37.802Z,1008.07
2018-06-01T02:52:37.800Z,1008.05
2018-06-01T02:53:37.799Z,1008.01
2018-06-01T02:54:37.797Z,1007.99
2018-06-01T02:55:37.789Z,1007.95
2018-06-01T02:56:37.785Z,1007.96
2018-06-01T02:57:37.780Z,1007.93
2018-06-01T02:58:37.785Z,1007.92
2018-06-01T02:59:37.776Z,1007.91
2018-06-01T03:00:37.768Z,1007.84
2018-06-01T03:01:37.767Z,1007.88
2018-06-01T03:02:37.763Z,1007.87
2018-06-01T03:03:37.760Z,1007.83
2018-06-01T03:04:37.755Z,1007.81
2018-06-01T03:05:37.752Z,1007.82
2018-06-01T03:06:37.749Z,1007.81
2018-06-01T03:07:37.745Z,1007.82
2018-06-01T03:08:37.743Z,1007.80
2018-06-01T03:09:37.737Z,1007.80
2018-06-01T03:10:37.730Z,1007.80
2018-06-01T03:11:37.729Z,1007.84
2018-06-01T03:12:37.724Z,1007.85
2018-06-01T03:13:37.723Z,1007.90
2018-06-01T03:14:37.718Z,1007.86
2018-06-01T03:15:37.715Z,1007.84
2018-06-01T03:16:37.710Z,1007.87
2018-06-01T03:17:37.705Z,1007.86
2018-06-01T03:18:37.708Z,1007.92
2018-06-01T03:19:37.694Z,1007.93
2018-06-01T03:20:37.694Z,1007.93
2018-06-01T03:21:37.692Z,1007.91
2018-06-01T03:22:37.686Z,1007.91
2018-06-01T03:23:37.681Z,1007.92
2018-06-01T03:24:37.681Z,1007.93
2018-06-01T03:25:37.678Z,1007.90
2018-06-01T03:26:37.680Z,1007.87
2018-06-01T03:27:37.669Z,1007.90
2018-06-01T03:28:37.667Z,1007.88
2018-06-01T03:29:37.667Z,1007.88
2018-06-01T03:30:37.653Z,1007.80
2018-06-01T03:31:37.652Z,1007.85
2018-06-01T03:32:37.649Z,1007.85
2018-06-01T03:33:37.645Z,1007.78
2018-06-01T03:34:37.644Z,1007.81
2018-06-01T03:35:37.639Z,1007.81
2018-06-01T03:36:37.636Z,1007.77
2018-06-01T03:37:37.638Z,1007.77
2018-06-01T03:38:37.622Z,1007.80
2018-06-01T03:39:37.623Z,1007.74
2018-06-01T03:40:37.624Z,1007.77
2018-06-01T03:41:37.614Z,1007.73
2018-06-01T03:42:38.589Z,1007.71
2018-06-01T03:43:37.611Z,1007.71
2018-06-01T03:44:37.611Z,1007.69
2018-06-01T03:45:37.605Z,1007.67
2018-06-01T03:46:37.599Z,1007.72
2018-06-01T03:47:37.603Z,1007.69
2018-06-01T03:48:37.590Z,1007.74
2018-06-01T03:49:37.590Z,1007.70
2018-06-01T03:50:37.583Z,1007.68
2018-06-01T03:51:37.583Z,1007.66
2018-06-01T03:52:37.577Z,1007.66
2018-06-01T03:53:37.574Z,1007.66
2018-06-01T03:54:37.573Z,1007.65
2018-06-01T03:55:37.568Z,1007.64
2018-06-01T03:56:37.565Z,1007.63
2018-06-01T03:57:37.559Z,1007.61
2018-06-01T03:58:37.553Z,1007.67
2018-06-01T03:59:37.554Z,1007.64
2018-06-01T04:00:37.545Z,1007.63
2018-06-01T04:01:37.544Z,1007.64
2018-06-01T04:02:37.542Z,1007.63
2018-06-01T04:03:37.539Z,1007.67
2018-06-01T04:04:37.537Z,1007.63
2018-06-01T04:05:37.529Z,1007.67
2018-06-01T04:06:37.531Z,1007.64
2018-06-01T04:07:37.534Z,1007.66
2018-06-01T04:08:37.519Z,1007.68
2018-06-01T04:09:37.520Z,1007.66
2018-06-01T04:10:37.521Z,1007.71
2018-06-01T04:11:37.510Z,1007.72
2018-06-01T04:12:37.508Z,1007.73
2018-06-01T04:13:37.503Z,1007.73
2018-06-01T04:14:37.504Z,1007.76
2018-06-01T04:15:37.501Z,1007.77
2018-06-01T04:16:37.496Z,1007.76
2018-06-01T04:17:37.511Z,1007.77
2018-06-01T04:18:37.483Z,1007.77
2018-06-01T04:19:37.483Z,1007.76
2018-06-01T04:20:37.475Z,1007.74
2018-06-01T04:21:37.484Z,1007.78
2018-06-01T04:22:37.474Z,1007.81
2018-06-01T04:23:37.473Z,1007.81
2018-06-01T04:24:37.467Z,1007.81
2018-06-01T04:25:37.464Z,1007.80
2018-06-01T04:26:37.472Z,1007.79
2018-06-01T04:27:37.513Z,1007.80
2018-06-01T04:28:37.461Z,1007.76
2018-06-01T04:29:37.452Z,1007.78
2018-06-01T04:30:37.449Z,1007.85
2018-06-01T04:31:37.451Z,1007.81
2018-06-01T04:32:37.444Z,1007.83
2018-06-01T04:33:37.438Z,1007.89
2018-06-01T04:34:37.439Z,1007.90
2018-06-01T04:35:37.436Z,1007.94
2018-06-01T04:36:37.430Z,1007.96
2018-06-01T04:37:37.428Z,1008.00
2018-06-01T04:38:37.421Z,1007.99
2018-06-01T04:39:37.424Z,1008.03
2018-06-01T04:40:37.423Z,1008.00
2018-06-01T04:41:37.416Z,1008.01
2018-06-01T04:42:37.411Z,1008.03
2018-06-01T04:43:37.409Z,1008.05
2018-06-01T04:44:37.407Z,1008.07
2018-06-01T04:45:37.402Z,1008.10
2018-06-01T04:46:37.400Z,1008.13
2018-06-01T04:47:37.400Z,1008.15
2018-06-01T04:48:37.396Z,1008.17
2018-06-01T04:49:37.399Z,1008.16
2018-06-01T04:50:37.390Z,1008.19
2018-06-01T04:51:37.385Z,1008.17
2018-06-01T04:52:37.384Z,1008.15
2018-06-01T04:53:37.383Z,1008.18
2018-06-01T04:54:37.377Z,1008.19
2018-06-01T04:55:37.376Z,1008.20
2018-06-01T04:56:37.374Z,1008.19
2018-06-01T04:57:37.371Z,1008.21
2018-06-01T04:58:37.367Z,1008.21
2018-06-01T04:59:37.369Z,1008.20
2018-06-01T05:00:37.361Z,1008.23
2018-06-01T05:01:37.359Z,1008.24
2018-06-01T05:02:37.358Z,1008.23
2018-06-01T05:03:37.355Z,1008.22
2018-06-01T05:04:37.352Z,1008.23
2018-06-01T05:05:37.351Z,1008.24
2018-06-01T05:06:37.347Z,1008.27
2018-06-01T05:07:37.347Z,1008.27
2018-06-01T05:08:37.344Z,1008.28
2018-06-01T05:09:37.341Z,1008.28
2018-06-01T05:10:37.337Z,1008.31
2018-06-01T05:11:37.334Z,1008.31
2018-06-01T05:12:37.334Z,1008.32
2018-06-01T05:13:37.330Z,1008.33
2018-06-01T05:14:37.334Z,1008.31
2018-06-01T05:15:37.326Z,1008.33
2018-06-01T05:16:37.356Z,1008.32
2018-06-01T05:17:37.321Z,1008.30
2018-06-01T05:18:37.318Z,1008.30
2018-06-01T05:19:37.318Z,1008.29
2018-06-01T05:20:37.310Z,1008.28
2018-06-01T05:21:37.309Z,1008.24
2018-06-01T05:22:37.309Z,1008.27
2018-06-01T05:23:37.312Z,1008.22
2018-06-01T05:24:37.305Z,1008.21
2018-06-01T05:25:37.311Z,1008.17
2018-06-01T05:26:37.304Z,1008.22
2018-06-01T05:27:37.298Z,1008.21
2018-06-01T05:28:37.295Z,1008.24
2018-06-01T05:29:37.293Z,1008.23
2018-06-01T05:30:37.292Z,1008.23
2018-06-01T05:31:37.290Z,1008.28
2018-06-01T05:32:37.287Z,1008.27
2018-06-01T05:33:37.285Z,1008.27
2018-06-01T05:34:37.282Z,1008.30
2018-06-01T05:35:37.279Z,1008.27
2018-06-01T05:36:37.279Z,1008.29
2018-06-01T05:37:37.275Z,1008.29
2018-06-01T05:38:37.276Z,1008.30
2018-06-01T05:39:37.275Z,1008.30
2018-06-01T05:40:37.272Z,1008.30
2018-06-01T05:41:37.294Z,1008.29
2018-06-01T05:42:37.263Z,1008.27
2018-06-01T05:43:37.259Z,1008.27
2018-06-01T05:44:37.260Z,1008.25
2018-06-01T05:45:37.268Z,1008.24
2018-06-01T05:46:37.256Z,1008.27
2018-06-01T05:47:37.253Z,1008.25
2018-06-01T05:48:37.251Z,1008.27
2018-06-01T05:49:37.249Z,1008.30
2018-06-01T05:50:37.252Z,1008.30
2018-06-01T05:51:37.244Z,1008.29
2018-06-01T05:52:37.245Z,1008.33
2018-06-01T05:53:37.244Z,1008.35
2018-06-01T05:54:37.231Z,1008.34
2018-06-01T05:55:37.234Z,1008.36
2018-06-01T05:56:37.244Z,1008.38
2018-06-01T05:57:37.233Z,1008.41
2018-06-01T05:58:37.230Z,1008.39
2018-06-01T05:59:37.228Z,1008.40
2018-06-01T06:00:37.223Z,1008.40
2018-06-01T06:01:37.225Z,1008.45
2018-06-01T06:02:37.221Z,1008.41
2018-06-01T06:03:37.218Z,1008.44
2018-06-01T06:04:37.275Z,1008.46
2018-06-01T06:05:37.211Z,1008.49
2018-06-01T06:06:37.212Z,1008.47
2018-06-01T06:07:37.212Z,1008.45
2018-06-01T06:08:37.210Z,1008.49
2018-06-01T06:09:37.208Z,1008.52
2018-06-01T06:10:37.221Z,1008.48
2018-06-01T06:11:37.206Z,1008.48
2018-06-01T06:12:37.202Z,1008.52
2018-06-01T06:13:37.259Z,1008.56
2018-06-01T06:14:37.199Z,1008.60
2018-06-01T06:15:37.197Z,1008.58
2018-06-01T06:16:37.203Z,1008.62
2018-06-01T06:17:37.191Z,1008.65
2018-06-01T06:18:37.216Z,1008.60
2018-06-01T06:19:37.191Z,1008.63
2018-06-01T06:20:37.186Z,1008.60
2018-06-01T06:21:37.188Z,1008.56
2018-06-01T06:22:37.189Z,1008.54
2018-06-01T06:23:37.185Z,1008.55
2018-06-01T06:24:37.183Z,1008.50
2018-06-01T06:25:37.218Z,1008.49
2018-06-01T06:26:37.180Z,1008.47
2018-06-01T06:27:37.178Z,1008.48
2018-06-01T06:28:37.182Z,1008.48
2018-06-01T06:29:37.172Z,1008.47
2018-06-01T06:30:37.171Z,1008.46
2018-06-01T06:31:37.173Z,1008.50
2018-06-01T06:32:37.170Z,1008.49
2018-06-01T06:33:37.174Z,1008.43
2018-06-01T06:34:37.171Z,1008.47
2018-06-01T06:35:37.171Z,1008.49
2018-06-01T06:36:37.170Z,1008.43
2018-06-01T06:37:37.227Z,1008.41
2018-06-01T06:38:37.168Z,1008.40
2018-06-01T06:39:37.166Z,1008.39
2018-06-01T06:40:37.166Z,1008.36
2018-06-01T06:41:37.180Z,1008.35
2018-06-01T06:42:37.185Z,1008.37
2018-06-01T06:43:37.163Z,1008.33
2018-06-01T06:44:37.165Z,1008.38
2018-06-01T06:45:37.167Z,1008.41
2018-06-01T06:46:37.174Z,1008.41
2018-06-01T06:47:37.165Z,1008.44
2018-06-01T06:48:37.171Z,1008.47
2018-06-01T06:49:37.169Z,1008.42
2018-06-01T06:50:37.171Z,1008.41
2018-06-01T06:51:37.172Z,1008.36
2018-06-01T06:52:37.175Z,1008.38
2018-06-01T06:53:37.177Z,1008.37
2018-06-01T06:54:37.177Z,1008.38
2018-06-01T06:55:37.179Z,1008.35
2018-06-01T06:56:37.187Z,1008.37
2018-06-01T06:57:37.185Z,1008.32
2018-06-01T06:58:37.189Z,1008.31
2018-06-01T06:59:37.189Z,1008.34
2018-06-01T07:00:37.196Z,1008.32
2018-06-01T07:01:37.195Z,1008.32
2018-06-01T07:02:37.199Z,1008.32
2018-06-01T07:03:37.195Z,1008.28
2018-06-01T07:04:37.200Z,1008.31
2018-06-01T07:05:37.199Z,1008.31
2018-06-01T07:06:37.205Z,1008.27
2018-06-01T07:07:37.214Z,1008.31
2018-06-01T07:08:37.208Z,1008.31
2018-06-01T07:09:37.211Z,1008.32
2018-06-01T07:10:37.247Z,1008.35
2018-06-01T07:11:37.218Z,1008.39
2018-06-01T07:12:37.223Z,1008.42
2018-06-01T07:13:37.226Z,1008.47
2018-06-01T07:14:37.230Z,1008.50
2018-06-01T07:15:37.234Z,1008.58
2018-06-01T07:16:37.236Z,1008.60
2018-06-01T07:17:37.255Z,1008.63
2018-06-01T07:18:37.243Z,1008.63
2018-06-01T07:19:37.243Z,1008.67
2018-06-01T07:20:37.247Z,1008.66
2018-06-01T07:21:37.252Z,1008.68
2018-06-01T07:22:37.302Z,1008.64
2018-06-01T07:23:37.257Z,1008.65
2018-06-01T07:24:37.258Z,1008.67
2018-06-01T07:25:37.262Z,1008.70
2018-06-01T07:26:37.263Z,1008.70
2018-06-01T07:27:37.296Z,1008.69
2018-06-01T07:28:37.268Z,1008.71
2018-06-01T07:29:37.269Z,1008.66
2018-06-01T07:30:37.274Z,1008.70
2018-06-01T07:31:37.275Z,1008.64
2018-06-01T07:32:37.272Z,1008.68
2018-06-01T07:33:37.280Z,1008.65
2018-06-01T07:34:37.280Z,1008.60
2018-06-01T07:35:37.284Z,1008.60
2018-06-01T07:36:37.278Z,1008.55
2018-06-01T07:37:37.300Z,1008.55
2018-06-01T07:38:37.284Z,1008.54
2018-06-01T07:39:37.287Z,1008.53
2018-06-01T07:40:37.303Z,1008.55
2018-06-01T07:41:37.301Z,1008.58
2018-06-01T07:42:37.295Z,1008.63
2018-06-01T07:43:37.289Z,1008.66
2018-06-01T07:44:37.311Z,1008.67
2018-06-01T07:45:37.309Z,1008.74
2018-06-01T07:46:37.287Z,1008.71
2018-06-01T07:47:37.291Z,1008.81
2018-06-01T07:48:37.289Z,1008.81
2018-06-01T07:49:37.293Z,1008.87
2018-06-01T07:50:37.299Z,1008.83
2018-06-01T07:51:37.293Z,1008.88
2018-06-01T07:52:37.312Z,1008.87
2018-06-01T07:53:37.296Z,1009.03
2018-06-01T07:54:37.311Z,1009.13
2018-06-01T07:55:37.308Z,1009.25
2018-06-01T07:56:37.291Z,1009.35
2018-06-01T07:57:37.291Z,1009.38
2018-06-01T07:58:37.288Z,1009.50
2018-06-01T07:59:37.286Z,1009.49
2018-06-01T08:00:37.285Z,1009.49
2018-06-01T08:01:37.286Z,1009.46
2018-06-01T08:02:37.287Z,1009.55
2018-06-01T08:03:37.315Z,1009.45
2018-06-01T08:04:37.295Z,1009.52
2018-06-01T08:05:37.287Z,1009.52
2018-06-01T08:06:37.286Z,1009.48
2018-06-01T08:07:37.281Z,1009.47
2018-06-01T08:08:37.282Z,1009.47
2018-06-01T08:09:37.281Z,1009.32
2018-06-01T08:10:37.278Z,1009.23
2018-06-01T08:11:37.281Z,1009.17
2018-06-01T08:12:37.270Z,1009.08
2018-06-01T08:13:37.274Z,1008.95
2018-06-01T08:14:37.311Z,1009.00
2018-06-01T08:15:37.264Z,1009.09
2018-06-01T08:16:37.280Z,1009.11
2018-06-01T08:17:37.260Z,1009.12
2018-06-01T08:18:37.318Z,1009.10
2018-06-01T08:19:37.263Z,1009.13
2018-06-01T08:20:37.258Z,1009.14
2018-06-01T08:21:37.252Z,1009.13
2018-06-01T08:22:37.252Z,1009.14
2018-06-01T08:23:37.254Z,1009.12
2018-06-01T08:24:37.247Z,1009.10
2018-06-01T08:25:37.244Z,1009.11
2018-06-01T08:26:37.239Z,1009.05
2018-06-01T08:27:37.241Z,1009.06
2018-06-01T08:28:37.241Z,1009.04
2018-06-01T08:29:37.236Z,1009.05
2018-06-01T08:30:37.234Z,1009.05
2018-06-01T08:31:37.230Z,1009.02
2018-06-01T08:32:37.240Z,1009.01
2018-06-01T08:33:37.227Z,1008.96
2018-06-01T08:34:37.226Z,1008.96
2018-06-01T08:35:37.220Z,1008.91
2018-06-01T08:36:37.219Z,1008.92
2018-06-01T08:37:37.215Z,1008.86
2018-06-01T08:38:37.213Z,1008.88
2018-06-01T08:39:37.217Z,1008.92
2018-06-01T08:40:37.213Z,1008.92
2018-06-01T08:41:37.205Z,1008.96
2018-06-01T08:42:37.204Z,1008.97
2018-06-01T08:43:37.201Z,1008.96
2018-06-01T08:44:37.201Z,1008.95
2018-06-01T08:45:37.196Z,1008.92
2018-06-01T08:46:37.250Z,1008.93
2018-06-01T08:47:37.192Z,1008.87
2018-06-01T08:48:37.188Z,1008.83
2018-06-01T08:49:37.184Z,1008.83
2018-06-01T08:50:37.183Z,1008.81
2018-06-01T08:51:37.182Z,1008.77
2018-06-01T08:52:37.178Z,1008.80
2018-06-01T08:53:37.175Z,1008.82
2018-06-01T08:54:37.172Z,1008.76
2018-06-01T08:55:37.174Z,1008.80
2018-06-01T08:56:37.174Z,1008.77
2018-06-01T08:57:37.167Z,1008.79
2018-06-01T08:58:37.160Z,1008.79
2018-06-01T08:59:37.170Z,1008.79
2018-06-01T09:00:37.170Z,1008.80
2018-06-01T09:01:37.153Z,1008.87
2018-06-01T09:02:37.155Z,1008.96
2018-06-01T09:03:37.154Z,1009.00
2018-06-01T09:04:37.234Z,1009.02
2018-06-01T09:05:37.150Z,1009.04
2018-06-01T09:06:37.145Z,1008.99
2018-06-01T09:07:37.137Z,1008.96
2018-06-01T09:08:37.135Z,1009.00
2018-06-01T09:09:37.145Z,1009.05
2018-06-01T09:10:37.127Z,1009.05
2018-06-01T09:11:37.128Z,1009.07
2018-06-01T09:12:37.121Z,1009.03
2018-06-01T09:13:37.120Z,1009.08
2018-06-01T09:14:37.131Z,1009.16
2018-06-01T09:15:37.112Z,1009.17
2018-06-01T09:16:37.183Z,1009.16
2018-06-01T09:17:37.110Z,1009.16
2018-06-01T09:18:37.113Z,1009.13
2018-06-01T09:19:37.103Z,1009.16
2018-06-01T09:20:37.100Z,1009.18
2018-06-01T09:21:37.111Z,1009.14
2018-06-01T09:22:37.091Z,1009.13
2018-06-01T09:23:37.088Z,1009.08
2018-06-01T09:24:37.086Z,1009.05
2018-06-01T09:25:37.078Z,1009.00
2018-06-01T09:26:37.079Z,1008.97
2018-06-01T09:27:37.077Z,1008.98
2018-06-01T09:28:37.070Z,1008.97
2018-06-01T09:29:37.064Z,1008.94
2018-06-01T09:30:37.073Z,1008.94
2018-06-01T09:31:37.065Z,1008.92
2018-06-01T09:32:37.063Z,1008.90
2018-06-01T09:33:37.067Z,1008.89
2018-06-01T09:34:37.051Z,1008.84
2018-06-01T09:35:37.046Z,1008.80
2018-06-01T09:36:37.043Z,1008.77
2018-06-01T09:37:37.037Z,1008.75
2018-06-01T09:38:37.036Z,1008.75
2018-06-01T09:39:37.033Z,1008.69
2018-06-01T09:40:37.026Z,1008.67
2018-06-01T09:41:37.023Z,1008.69
2018-06-01T09:42:37.025Z,1008.69
2018-06-01T09:43:37.019Z,1008.73
2018-06-01T09:44:37.027Z,1008.67
2018-06-01T09:45:37.007Z,1008.70
2018-06-01T09:46:37.893Z,1008.72
2018-06-01T09:47:37.004Z,1008.71
2018-06-01T09:48:37.002Z,1008.74
2018-06-01T09:49:36.996Z,1008.77
2018-06-01T09:50:36.993Z,1008.74
2018-06-01T09:51:36.994Z,1008.77
2018-06-01T09:52:36.987Z,1008.79
2018-06-01T09:53:36.984Z,1008.78
2018-06-01T09:54:36.978Z,1008.79
2018-06-01T09:55:36.977Z,1008.77
2018-06-01T09:56:36.968Z,1008.78
2018-06-01T09:57:36.965Z,1008.69
2018-06-01T09:58:36.969Z,1008.68
2018-06-01T09:59:36.958Z,1008.72
2018-06-01T10:00:36.957Z,1008.74
2018-06-01T10:01:36.956Z,1008.79
2018-06-01T10:02:36.959Z,1008.79
2018-06-01T10:03:36.958Z,1008.81
2018-06-01T10:04:36.950Z,1008.84
2018-06-01T10:05:36.939Z,1008.82
2018-06-01T10:06:37.793Z,1008.84
2018-06-01T10:07:36.932Z,1008.85
2018-06-01T10:08:36.930Z,1008.88
2018-06-01T10:09:36.924Z,1008.86
2018-06-01T10:10:36.920Z,1008.88
2018-06-01T10:11:36.920Z,1008.90
2018-06-01T10:12:36.915Z,1008.89
2018-06-01T10:13:36.913Z,1008.94
2018-06-01T10:14:36.911Z,1008.86
2018-06-01T10:15:36.933Z,1008.88
2018-06-01T10:16:36.906Z,1008.90
2018-06-01T10:17:36.898Z,1008.94
2018-06-01T10:18:36.899Z,1008.93
2018-06-01T10:19:36.906Z,1008.96
2018-06-01T10:20:36.893Z,1008.92
2018-06-01T10:21:36.894Z,1008.92
2018-06-01T10:22:36.885Z,1008.89
2018-06-01T10:23:36.883Z,1008.92
2018-06-01T10:24:36.884Z,1008.86
2018-06-01T10:25:36.879Z,1008.89
2018-06-01T10:26:36.877Z,1008.88
2018-06-01T10:27:36.870Z,1008.88
2018-06-01T10:28:36.869Z,1008.86
2018-06-01T10:29:36.868Z,1008.88
2018-06-01T10:30:36.862Z,1008.86
2018-06-01T10:31:36.866Z,1008.84
2018-06-01T10:32:36.860Z,1008.85
2018-06-01T10:33:36.855Z,1008.84
2018-06-01T10:34:36.853Z,1008.86
2018-06-01T10:35:36.852Z,1008.87
2018-06-01T10:36:36.849Z,1008.91
2018-06-01T10:37:36.848Z,1008.92
2018-06-01T10:38:36.840Z,1008.96
2018-06-01T10:39:36.896Z,1008.92
2018-06-01T10:40:36.836Z,1008.91
2018-06-01T10:41:36.837Z,1008.91
2018-06-01T10:42:36.839Z,1008.88
2018-06-01T10:43:36.834Z,1008.90
2018-06-01T10:44:36.831Z,1008.85
2018-06-01T10:45:36.830Z,1008.84
2018-06-01T10:46:36.825Z,1008.81
2018-06-01T10:47:36.825Z,1008.81
2018-06-01T10:48:36.827Z,1008.82
2018-06-01T10:49:36.880Z,1008.86
2018-06-01T10:50:36.822Z,1008.86
2018-06-01T10:51:36.830Z,1008.84
2018-06-01T10:52:36.824Z,1008.81
2018-06-01T10:53:36.820Z,1008.85
2018-06-01T10:54:36.821Z,1008.81
2018-06-01T10:55:36.825Z,1008.88
2018-06-01T10:56:36.823Z,1008.89
2018-06-01T10:57:36.831Z,1008.92
2018-06-01T10:58:36.827Z,1008.92
2018-06-01T10:59:36.839Z,1008.87
2018-06-01T11:00:36.840Z,1008.86
2018-06-01T11:01:36.838Z,1008.86
2018-06-01T11:02:36.830Z,1008.88
2018-06-01T11:03:36.833Z,1008.93
2018-06-01T11:04:36.836Z,1008.91
2018-06-01T11:05:36.839Z,1008.91
2018-06-01T11:06:36.851Z,1008.94
2018-06-01T11:07:36.855Z,1008.90
2018-06-01T11:08:36.851Z,1008.85
2018-06-01T11:09:36.860Z,1008.86
2018-06-01T11:10:36.858Z,1008.81
2018-06-01T11:11:36.869Z,1008.88
2018-06-01T11:12:36.867Z,1008.92
2018-06-01T11:13:36.915Z,1008.93
2018-06-01T11:14:36.878Z,1008.95
2018-06-01T11:15:36.906Z,1008.95
2018-06-01T11:16:36.890Z,1008.93
2018-06-01T11:17:36.893Z,1008.93
2018-06-01T11:18:36.902Z,1008.94
2018-06-01T11:19:36.902Z,1008.92
2018-06-01T11:20:36.915Z,1008.93
2018-06-01T11:21:36.984Z,1008.97
2018-06-01T11:22:36.920Z,1008.98
2018-06-01T11:23:36.967Z,1008.95
2018-06-01T11:24:36.935Z,1009.00
2018-06-01T11:25:36.957Z,1009.03
2018-06-01T11:26:36.945Z,1008.98
2018-06-01T11:27:36.949Z,1009.03
2018-06-01T11:28:36.958Z,1009.04
2018-06-01T11:29:36.961Z,1009.04
2018-06-01T11:30:36.969Z,1009.06
2018-06-01T11:31:36.975Z,1009.06
2018-06-01T11:32:36.986Z,1009.05
2018-06-01T11:33:36.996Z,1009.08
2018-06-01T11:34:36.997Z,1009.09
2018-06-01T11:35:36.993Z,1009.09
2018-06-01T11:36:36.997Z,1009.15
2018-06-01T11:37:37.003Z,1009.14
2018-06-01T11:38:37.001Z,1009.19
2018-06-01T11:39:37.009Z,1009.19
2018-06-01T11:40:37.018Z,1009.19
2018-06-01T11:41:37.020Z,1009.19
2018-06-01T11:42:37.026Z,1009.20
2018-06-01T11:43:37.024Z,1009.20
2018-06-01T11:44:37.031Z,1009.18
2018-06-01T11:45:37.043Z,1009.15
2018-06-01T11:46:37.040Z,1009.16
2018-06-01T11:47:37.049Z,1009.15
2018-06-01T11:48:37.050Z,1009.12
2018-06-01T11:49:37.050Z,1009.11
2018-06-01T11:50:37.056Z,1009.13
2018-06-01T11:51:37.059Z,1009.15
2018-06-01T11:52:37.064Z,1009.18
2018-06-01T11:53:37.065Z,1009.16
2018-06-01T11:54:39.869Z,1009.15
2018-06-01T11:55:37.076Z,1009.14
2018-06-01T11:56:37.079Z,1009.14
2018-06-01T11:57:37.082Z,1009.13
2018-06-01T11:58:37.086Z,1009.14
2018-06-01T11:59:37.092Z,1009.08
2018-06-01T12:00:37.094Z,1009.12
2018-06-01T12:01:37.133Z,1009.10
2018-06-01T12:02:37.105Z,1009.10
2018-06-01T12:03:37.113Z,1009.07
2018-06-01T12:04:37.109Z,1009.10
2018-06-01T12:05:37.131Z,1009.02